sensor_id;sensor_type;location;lat;lon;timestamp;pressure;altitude;pressure_sealevel;temperature;humidity
48553;BME280;34335;51.566;6.994;2023-07-13T00:01:46;100821.59;;;17.27;100.00
48553;BME280;34335;51.566;6.994;2023-07-13T00:04:18;100821.81;;;17.20;100.00
48553;BME280;34335;51.566;6.994;2023-07-13T00:06:45;100823.97;;;17.04;100.00
48553;BME280;34335;51.566;6.994;2023-07-13T00:09:12;100828.56;;;16.95;100.00
48553;BME280;34335;51.566;6.994;2023-07-13T00:11:38;100824.84;;;17.04;99.96
48553;BME280;34335;51.566;6.994;2023-07-13T00:14:03;100823.94;;;17.05;100.00
48553;BME280;34335;51.566;6.994;2023-07-13T00:16:29;100825.91;;;16.97;100.00
48553;BME280;34335;51.566;6.994;2023-07-13T00:18:54;100827.47;;;16.68;100.00
48553;BME280;34335;51.566;6.994;2023-07-13T00:21:19;100825.53;;;16.76;100.00
48553;BME280;34335;51.566;6.994;2023-07-13T00:23:45;100827.03;;;16.87;99.64
48553;BME280;34335;51.566;6.994;2023-07-13T00:26:11;100821.66;;;16.90;98.90
48553;BME280;34335;51.566;6.994;2023-07-13T00:28:38;100831.44;;;16.85;100.00
48553;BME280;34335;51.566;6.994;2023-07-13T00:31:04;100822.28;;;16.65;100.00
48553;BME280;34335;51.566;6.994;2023-07-13T00:33:29;100821.47;;;16.63;100.00
48553;BME280;34335;51.566;6.994;2023-07-13T00:35:55;100824.41;;;16.49;100.00
48553;BME280;34335;51.566;6.994;2023-07-13T00:38:22;100827.09;;;16.47;100.00
48553;BME280;34335;51.566;6.994;2023-07-13T00:40:47;100823.78;;;16.39;100.00
48553;BME280;34335;51.566;6.994;2023-07-13T00:43:21;100827.53;;;16.27;100.00
48553;BME280;34335;51.566;6.994;2023-07-13T00:48:14;100816.03;;;16.33;100.00
48553;BME280;34335;51.566;6.994;2023-07-13T00:50:41;100820.34;;;16.37;100.00
48553;BME280;34335;51.566;6.994;2023-07-13T00:53:07;100824.22;;;16.20;100.00
48553;BME280;34335;51.566;6.994;2023-07-13T00:55:33;100819.19;;;16.10;100.00
48553;BME280;34335;51.566;6.994;2023-07-13T00:57:58;100824.47;;;16.08;100.00
48553;BME280;34335;51.566;6.994;2023-07-13T01:00:25;100827.34;;;15.96;100.00
48553;BME280;34335;51.566;6.994;2023-07-13T01:02:51;100824.69;;;15.99;100.00
48553;BME280;34335;51.566;6.994;2023-07-13T01:05:20;100826.53;;;15.94;100.00
48553;BME280;34335;51.566;6.994;2023-07-13T01:07:48;100817.97;;;15.82;100.00
48553;BME280;34335;51.566;6.994;2023-07-13T01:10:14;100828.38;;;15.88;100.00
48553;BME280;34335;51.566;6.994;2023-07-13T01:12:39;100824.88;;;15.89;100.00
48553;BME280;34335;51.566;6.994;2023-07-13T01:15:32;100831.94;;;15.86;100.00
48553;BME280;34335;51.566;6.994;2023-07-13T01:17:51;100823.47;;;15.71;100.00
48553;BME280;34335;51.566;6.994;2023-07-13T01:20:16;100826.91;;;15.73;100.00
48553;BME280;34335;51.566;6.994;2023-07-13T01:22:42;100833.28;;;15.62;100.00
48553;BME280;34335;51.566;6.994;2023-07-13T01:25:07;100832.47;;;15.58;100.00
48553;BME280;34335;51.566;6.994;2023-07-13T01:27:33;100827.38;;;15.50;100.00
48553;BME280;34335;51.566;6.994;2023-07-13T01:29:59;100825.69;;;15.46;100.00
48553;BME280;34335;51.566;6.994;2023-07-13T01:32:29;100813.44;;;15.48;100.00
48553;BME280;34335;51.566;6.994;2023-07-13T01:34:56;100817.94;;;15.41;100.00
48553;BME280;34335;51.566;6.994;2023-07-13T01:37:23;100818.72;;;15.47;100.00
48553;BME280;34335;51.566;6.994;2023-07-13T01:39:49;100824.75;;;15.50;100.00
48553;BME280;34335;51.566;6.994;2023-07-13T01:42:14;100828.34;;;15.45;100.00
48553;BME280;34335;51.566;6.994;2023-07-13T01:44:40;100828.31;;;15.48;100.00
48553;BME280;34335;51.566;6.994;2023-07-13T01:47:05;100814.38;;;15.44;100.00
48553;BME280;34335;51.566;6.994;2023-07-13T01:49:31;100820.63;;;15.37;100.00
48553;BME280;34335;51.566;6.994;2023-07-13T01:51:56;100824.31;;;15.26;100.00
48553;BME280;34335;51.566;6.994;2023-07-13T01:54:22;100825.06;;;15.33;100.00
48553;BME280;34335;51.566;6.994;2023-07-13T01:56:47;100825.13;;;15.30;100.00
48553;BME280;34335;51.566;6.994;2023-07-13T01:59:13;100832.22;;;15.25;100.00
48553;BME280;34335;51.566;6.994;2023-07-13T02:01:38;100838.31;;;15.25;100.00
48553;BME280;34335;51.566;6.994;2023-07-13T02:04:03;100840.88;;;15.29;100.00
48553;BME280;34335;51.566;6.994;2023-07-13T02:06:29;100842.66;;;15.26;100.00
48553;BME280;34335;51.566;6.994;2023-07-13T02:08:54;100839.31;;;15.18;100.00
48553;BME280;34335;51.566;6.994;2023-07-13T02:11:20;100842.06;;;15.10;100.00
48553;BME280;34335;51.566;6.994;2023-07-13T02:13:45;100831.59;;;15.12;100.00
48553;BME280;34335;51.566;6.994;2023-07-13T02:16:10;100837.66;;;15.13;100.00
48553;BME280;34335;51.566;6.994;2023-07-13T02:18:36;100833.41;;;15.07;100.00
48553;BME280;34335;51.566;6.994;2023-07-13T02:21:01;100836.88;;;15.09;100.00
48553;BME280;34335;51.566;6.994;2023-07-13T02:23:28;100840.38;;;15.08;100.00
48553;BME280;34335;51.566;6.994;2023-07-13T02:25:57;100828.16;;;15.07;100.00
48553;BME280;34335;51.566;6.994;2023-07-13T02:28:23;100829.97;;;15.05;100.00
48553;BME280;34335;51.566;6.994;2023-07-13T02:30:48;100826.50;;;15.03;100.00
48553;BME280;34335;51.566;6.994;2023-07-13T02:33:14;100830.78;;;15.08;100.00
48553;BME280;34335;51.566;6.994;2023-07-13T02:35:39;100843.19;;;14.97;100.00
48553;BME280;34335;51.566;6.994;2023-07-13T02:38:04;100836.28;;;14.91;100.00
48553;BME280;34335;51.566;6.994;2023-07-13T02:40:30;100840.56;;;14.97;100.00
48553;BME280;34335;51.566;6.994;2023-07-13T02:42:58;100835.44;;;14.89;100.00
48553;BME280;34335;51.566;6.994;2023-07-13T02:45:23;100835.56;;;14.83;100.00
48553;BME280;34335;51.566;6.994;2023-07-13T02:47:49;100830.47;;;14.74;100.00
48553;BME280;34335;51.566;6.994;2023-07-13T02:50:14;100840.06;;;14.73;100.00
48553;BME280;34335;51.566;6.994;2023-07-13T02:52:39;100844.47;;;14.73;100.00
48553;BME280;34335;51.566;6.994;2023-07-13T02:55:05;100843.66;;;14.69;100.00
48553;BME280;34335;51.566;6.994;2023-07-13T02:57:30;100840.03;;;14.76;100.00
48553;BME280;34335;51.566;6.994;2023-07-13T02:59:57;100842.78;;;14.67;100.00
48553;BME280;34335;51.566;6.994;2023-07-13T03:02:23;100838.53;;;14.60;100.00
48553;BME280;34335;51.566;6.994;2023-07-13T03:04:49;100843.72;;;14.61;100.00
48553;BME280;34335;51.566;6.994;2023-07-13T03:07:14;100840.38;;;14.53;100.00
48553;BME280;34335;51.566;6.994;2023-07-13T03:09:40;100841.22;;;14.54;100.00
48553;BME280;34335;51.566;6.994;2023-07-13T03:12:06;100839.47;;;14.54;100.00
48553;BME280;34335;51.566;6.994;2023-07-13T03:14:31;100850.97;;;14.44;100.00
48553;BME280;34335;51.566;6.994;2023-07-13T03:16:57;100848.38;;;14.41;100.00
48553;BME280;34335;51.566;6.994;2023-07-13T03:19:22;100848.28;;;14.48;100.00
48553;BME280;34335;51.566;6.994;2023-07-13T03:21:47;100846.59;;;14.46;100.00
48553;BME280;34335;51.566;6.994;2023-07-13T03:24:13;100850.09;;;14.45;100.00
48553;BME280;34335;51.566;6.994;2023-07-13T03:26:38;100850.09;;;14.45;100.00
48553;BME280;34335;51.566;6.994;2023-07-13T03:29:03;100854.44;;;14.44;100.00
48553;BME280;34335;51.566;6.994;2023-07-13T03:31:34;100864.97;;;14.41;100.00
48553;BME280;34335;51.566;6.994;2023-07-13T03:33:59;100862.31;;;14.43;100.00
48553;BME280;34335;51.566;6.994;2023-07-13T03:36:27;100868.44;;;14.42;100.00
48553;BME280;34335;51.566;6.994;2023-07-13T03:38:55;100862.34;;;14.40;100.00
48553;BME280;34335;51.566;6.994;2023-07-13T03:41:21;100867.53;;;14.44;100.00
48553;BME280;34335;51.566;6.994;2023-07-13T03:43:47;100862.28;;;14.46;100.00
48553;BME280;34335;51.566;6.994;2023-07-13T03:46:13;100866.78;;;14.38;100.00
48553;BME280;34335;51.566;6.994;2023-07-13T03:48:40;100870.28;;;14.35;100.00
48553;BME280;34335;51.566;6.994;2023-07-13T03:51:07;100870.31;;;14.33;100.00
48553;BME280;34335;51.566;6.994;2023-07-13T03:53:35;100881.63;;;14.36;100.00
48553;BME280;34335;51.566;6.994;2023-07-13T03:56:00;100878.03;;;14.40;100.00
48553;BME280;34335;51.566;6.994;2023-07-13T03:58:37;100879.00;;;14.36;100.00
48553;BME280;34335;51.566;6.994;2023-07-13T04:01:05;100885.00;;;14.41;100.00
48553;BME280;34335;51.566;6.994;2023-07-13T04:03:31;100883.22;;;14.46;100.00
48553;BME280;34335;51.566;6.994;2023-07-13T04:05:59;100888.47;;;14.43;100.00
48553;BME280;34335;51.566;6.994;2023-07-13T04:08:29;100891.00;;;14.51;100.00
48553;BME280;34335;51.566;6.994;2023-07-13T04:10:55;100882.34;;;14.45;100.00
48553;BME280;34335;51.566;6.994;2023-07-13T04:13:21;100894.47;;;14.51;100.00
48553;BME280;34335;51.566;6.994;2023-07-13T04:15:46;100896.13;;;14.57;100.00
48553;BME280;34335;51.566;6.994;2023-07-13T04:18:12;100899.59;;;14.59;100.00
48553;BME280;34335;51.566;6.994;2023-07-13T04:20:37;100900.41;;;14.62;100.00
48553;BME280;34335;51.566;6.994;2023-07-13T04:23:02;100894.25;;;14.68;100.00
48553;BME280;34335;51.566;6.994;2023-07-13T04:25:27;100896.84;;;14.70;100.00
48553;BME280;34335;51.566;6.994;2023-07-13T04:27:53;100904.69;;;14.70;100.00
48553;BME280;34335;51.566;6.994;2023-07-13T04:30:19;100904.63;;;14.76;100.00
48553;BME280;34335;51.566;6.994;2023-07-13T04:32:45;100893.19;;;14.80;100.00
48553;BME280;34335;51.566;6.994;2023-07-13T04:35:10;100901.91;;;14.82;100.00
48553;BME280;34335;51.566;6.994;2023-07-13T04:37:36;100900.13;;;14.84;100.00
48553;BME280;34335;51.566;6.994;2023-07-13T04:40:02;100906.19;;;14.88;100.00
48553;BME280;34335;51.566;6.994;2023-07-13T04:42:28;100901.78;;;14.88;100.00
48553;BME280;34335;51.566;6.994;2023-07-13T04:44:54;100900.78;;;14.97;100.00
48553;BME280;34335;51.566;6.994;2023-07-13T04:47:19;100907.69;;;15.03;100.00
48553;BME280;34335;51.566;6.994;2023-07-13T04:49:45;100911.16;;;15.03;100.00
48553;BME280;34335;51.566;6.994;2023-07-13T04:52:11;100912.78;;;15.10;100.00
48553;BME280;34335;51.566;6.994;2023-07-13T04:54:37;100912.78;;;15.10;100.00
48553;BME280;34335;51.566;6.994;2023-07-13T04:57:05;100911.00;;;15.14;100.00
48553;BME280;34335;51.566;6.994;2023-07-13T04:59:32;100911.91;;;15.13;100.00
48553;BME280;34335;51.566;6.994;2023-07-13T05:01:57;100918.75;;;15.20;100.00
48553;BME280;34335;51.566;6.994;2023-07-13T05:04:23;100923.03;;;15.24;100.00
48553;BME280;34335;51.566;6.994;2023-07-13T05:06:48;100917.75;;;15.27;100.00
48553;BME280;34335;51.566;6.994;2023-07-13T05:09:13;100923.84;;;15.30;100.00
48553;BME280;34335;51.566;6.994;2023-07-13T05:11:38;100923.78;;;15.33;100.00
48553;BME280;34335;51.566;6.994;2023-07-13T05:14:04;100928.97;;;15.36;100.00
48553;BME280;34335;51.566;6.994;2023-07-13T05:16:30;100930.69;;;15.37;100.00
48553;BME280;34335;51.566;6.994;2023-07-13T05:18:55;100929.75;;;15.41;100.00
48553;BME280;34335;51.566;6.994;2023-07-13T05:21:20;100928.88;;;15.42;100.00
48553;BME280;34335;51.566;6.994;2023-07-13T05:23:47;100931.50;;;15.42;100.00
48553;BME280;34335;51.566;6.994;2023-07-13T05:26:13;100935.72;;;15.49;100.00
48553;BME280;34335;51.566;6.994;2023-07-13T05:28:38;100937.34;;;15.56;100.00
48553;BME280;34335;51.566;6.994;2023-07-13T05:31:04;100935.44;;;15.65;100.00
48553;BME280;34335;51.566;6.994;2023-07-13T05:33:30;100939.91;;;15.60;100.00
48553;BME280;34335;51.566;6.994;2023-07-13T05:35:55;100937.34;;;15.58;100.00
48553;BME280;34335;51.566;6.994;2023-07-13T05:38:20;100941.56;;;15.65;100.00
48553;BME280;34335;51.566;6.994;2023-07-13T05:40:46;100940.50;;;15.74;100.00
48553;BME280;34335;51.566;6.994;2023-07-13T05:43:13;100937.94;;;15.72;100.00
48553;BME280;34335;51.566;6.994;2023-07-13T05:45:38;100946.56;;;15.78;100.00
48553;BME280;34335;51.566;6.994;2023-07-13T05:48:04;100944.81;;;15.78;100.00
48553;BME280;34335;51.566;6.994;2023-07-13T05:50:29;100953.34;;;15.91;100.00
48553;BME280;34335;51.566;6.994;2023-07-13T05:52:55;100952.38;;;15.97;100.00
48553;BME280;34335;51.566;6.994;2023-07-13T05:55:21;100954.09;;;15.98;100.00
48553;BME280;34335;51.566;6.994;2023-07-13T05:57:47;100962.00;;;15.95;100.00
48553;BME280;34335;51.566;6.994;2023-07-13T06:00:12;100968.91;;;16.00;100.00
48553;BME280;34335;51.566;6.994;2023-07-13T06:02:38;100959.97;;;16.11;100.00
48553;BME280;34335;51.566;6.994;2023-07-13T06:05:03;100972.28;;;16.07;100.00
48553;BME280;34335;51.566;6.994;2023-07-13T06:07:29;100978.19;;;16.17;100.00
48553;BME280;34335;51.566;6.994;2023-07-13T06:09:55;100970.13;;;16.26;100.00
48553;BME280;34335;51.566;6.994;2023-07-13T06:12:20;100971.06;;;16.24;100.00
48553;BME280;34335;51.566;6.994;2023-07-13T06:14:46;100972.00;;;16.21;100.00
48553;BME280;34335;51.566;6.994;2023-07-13T06:17:11;100967.41;;;16.32;100.00
48553;BME280;34335;51.566;6.994;2023-07-13T06:19:36;100972.47;;;16.42;100.00
48553;BME280;34335;51.566;6.994;2023-07-13T06:22:02;100976.88;;;16.40;100.00
48553;BME280;34335;51.566;6.994;2023-07-13T06:24:27;100982.72;;;16.54;100.00
48553;BME280;34335;51.566;6.994;2023-07-13T06:26:53;100994.00;;;16.56;100.00
48553;BME280;34335;51.566;6.994;2023-07-13T06:29:18;100981.47;;;16.69;100.00
48553;BME280;34335;51.566;6.994;2023-07-13T06:31:43;100994.69;;;16.66;100.00
48553;BME280;34335;51.566;6.994;2023-07-13T06:34:09;100996.06;;;16.82;100.00
48553;BME280;34335;51.566;6.994;2023-07-13T06:36:34;100990.03;;;16.79;100.00
48553;BME280;34335;51.566;6.994;2023-07-13T06:39:01;101002.28;;;16.80;100.00
48553;BME280;34335;51.566;6.994;2023-07-13T06:41:27;101002.47;;;16.69;100.00
48553;BME280;34335;51.566;6.994;2023-07-13T06:43:52;100995.03;;;16.90;100.00
48553;BME280;34335;51.566;6.994;2023-07-13T06:46:22;101004.00;;;16.81;100.00
48553;BME280;34335;51.566;6.994;2023-07-13T06:48:48;100994.22;;;16.88;100.00
48553;BME280;34335;51.566;6.994;2023-07-13T06:51:13;100999.38;;;16.92;100.00
48553;BME280;34335;51.566;6.994;2023-07-13T06:53:39;100998.16;;;17.09;100.00
48553;BME280;34335;51.566;6.994;2023-07-13T06:56:04;101007.78;;;17.08;100.00
48553;BME280;34335;51.566;6.994;2023-07-13T06:58:30;101005.84;;;17.17;100.00
48553;BME280;34335;51.566;6.994;2023-07-13T07:00:56;101000.16;;;17.35;100.00
48553;BME280;34335;51.566;6.994;2023-07-13T07:03:21;101003.22;;;17.53;100.00
48553;BME280;34335;51.566;6.994;2023-07-13T07:05:46;101008.16;;;17.65;100.00
48553;BME280;34335;51.566;6.994;2023-07-13T07:08:12;101007.53;;;17.90;100.00
48553;BME280;34335;51.566;6.994;2023-07-13T07:10:37;101008.63;;;17.81;100.00
48553;BME280;34335;51.566;6.994;2023-07-13T07:13:03;101010.34;;;17.84;100.00
48553;BME280;34335;51.566;6.994;2023-07-13T07:15:29;101025.28;;;17.82;100.00
48553;BME280;34335;51.566;6.994;2023-07-13T07:17:54;101022.72;;;17.79;100.00
48553;BME280;34335;51.566;6.994;2023-07-13T07:20:19;101020.59;;;18.26;100.00
48553;BME280;34335;51.566;6.994;2023-07-13T07:22:45;101016.47;;;18.49;100.00
48553;BME280;34335;51.566;6.994;2023-07-13T07:25:11;101029.50;;;18.52;100.00
48553;BME280;34335;51.566;6.994;2023-07-13T07:27:36;101025.81;;;18.59;100.00
48553;BME280;34335;51.566;6.994;2023-07-13T07:30:02;101024.31;;;18.50;100.00
48553;BME280;34335;51.566;6.994;2023-07-13T07:32:29;101030.59;;;18.45;100.00
48553;BME280;34335;51.566;6.994;2023-07-13T07:34:56;101022.81;;;18.72;100.00
48553;BME280;34335;51.566;6.994;2023-07-13T07:37:21;101024.38;;;18.49;100.00
48553;BME280;34335;51.566;6.994;2023-07-13T07:39:47;101016.81;;;18.66;100.00
48553;BME280;34335;51.566;6.994;2023-07-13T07:42:13;101026.75;;;18.87;100.00
48553;BME280;34335;51.566;6.994;2023-07-13T07:44:40;101017.25;;;19.11;100.00
48553;BME280;34335;51.566;6.994;2023-07-13T07:47:07;101024.56;;;19.29;100.00
48553;BME280;34335;51.566;6.994;2023-07-13T07:49:32;101023.47;;;19.37;100.00
48553;BME280;34335;51.566;6.994;2023-07-13T07:51:57;101017.06;;;19.44;100.00
48553;BME280;34335;51.566;6.994;2023-07-13T07:54:23;101008.25;;;19.45;100.00
48553;BME280;34335;51.566;6.994;2023-07-13T07:56:48;101023.81;;;19.26;100.00
48553;BME280;34335;51.566;6.994;2023-07-13T07:59:14;101025.00;;;19.44;100.00
48553;BME280;34335;51.566;6.994;2023-07-13T08:01:39;101017.38;;;19.88;100.00
48553;BME280;34335;51.566;6.994;2023-07-13T08:04:04;101017.38;;;19.88;100.00
48553;BME280;34335;51.566;6.994;2023-07-13T08:06:32;101022.13;;;20.04;100.00
48553;BME280;34335;51.566;6.994;2023-07-13T08:08:59;101020.28;;;20.53;100.00
48553;BME280;34335;51.566;6.994;2023-07-13T08:11:24;101023.75;;;20.32;100.00
48553;BME280;34335;51.566;6.994;2023-07-13T08:13:50;101025.91;;;20.44;100.00
48553;BME280;34335;51.566;6.994;2023-07-13T08:16:15;101023.75;;;20.32;100.00
48553;BME280;34335;51.566;6.994;2023-07-13T08:18:41;101021.31;;;19.75;100.00
48553;BME280;34335;51.566;6.994;2023-07-13T08:21:07;101016.13;;;19.99;100.00
48553;BME280;34335;51.566;6.994;2023-07-13T08:23:33;101020.81;;;19.90;100.00
48553;BME280;34335;51.566;6.994;2023-07-13T08:25:58;101020.56;;;20.22;100.00
48553;BME280;34335;51.566;6.994;2023-07-13T08:28:26;101022.78;;;20.58;100.00
48553;BME280;34335;51.566;6.994;2023-07-13T08:30:52;101029.66;;;19.89;100.00
48553;BME280;34335;51.566;6.994;2023-07-13T08:33:18;101025.03;;;19.96;100.00
48553;BME280;34335;51.566;6.994;2023-07-13T08:35:48;101021.78;;;20.13;100.00
48553;BME280;34335;51.566;6.994;2023-07-13T08:38:13;101025.69;;;20.27;100.00
48553;BME280;34335;51.566;6.994;2023-07-13T08:40:39;101023.41;;;20.41;100.00
48553;BME280;34335;51.566;6.994;2023-07-13T08:43:09;101021.25;;;20.98;100.00
48553;BME280;34335;51.566;6.994;2023-07-13T08:45:47;101021.56;;;21.35;100.00
48553;BME280;34335;51.566;6.994;2023-07-13T08:48:26;101035.53;;;20.94;100.00
48553;BME280;34335;51.566;6.994;2023-07-13T08:50:58;101023.78;;;21.01;100.00
48553;BME280;34335;51.566;6.994;2023-07-13T08:53:32;101019.59;;;21.18;100.00
48553;BME280;34335;51.566;6.994;2023-07-13T08:55:59;101022.13;;;20.99;100.00
48553;BME280;34335;51.566;6.994;2023-07-13T08:58:27;101020.03;;;21.07;100.00
48553;BME280;34335;51.566;6.994;2023-07-13T09:04:09;101020.03;;;21.07;100.00
48553;BME280;34335;51.566;6.994;2023-07-13T09:06:49;101025.44;;;21.48;100.00
48553;BME280;34335;51.566;6.994;2023-07-13T09:12:35;101029.41;;;21.16;100.00
48553;BME280;34335;51.566;6.994;2023-07-13T09:15:03;101023.94;;;21.21;100.00
48553;BME280;34335;51.566;6.994;2023-07-13T09:17:41;101018.91;;;21.78;100.00
48553;BME280;34335;51.566;6.994;2023-07-13T09:22:47;101021.56;;;21.78;100.00
48553;BME280;34335;51.566;6.994;2023-07-13T09:25:20;101018.22;;;22.14;100.00
48553;BME280;34335;51.566;6.994;2023-07-13T09:27:47;101034.06;;;22.16;100.00
48553;BME280;34335;51.566;6.994;2023-07-13T09:32:39;101033.22;;;21.52;100.00
48553;BME280;34335;51.566;6.994;2023-07-13T09:35:11;101034.19;;;21.71;100.00
48553;BME280;34335;51.566;6.994;2023-07-13T09:37:37;101026.53;;;22.06;100.00
48553;BME280;34335;51.566;6.994;2023-07-13T09:40:04;101029.63;;;21.75;100.00
48553;BME280;34335;51.566;6.994;2023-07-13T09:42:31;101038.00;;;21.21;100.00
48553;BME280;34335;51.566;6.994;2023-07-13T09:45:02;101029.19;;;21.43;100.00
48553;BME280;34335;51.566;6.994;2023-07-13T09:47:30;101024.97;;;22.42;100.00
48553;BME280;34335;51.566;6.994;2023-07-13T09:49:57;101033.78;;;22.43;100.00
48553;BME280;34335;51.566;6.994;2023-07-13T09:52:24;101032.34;;;22.15;95.50
48553;BME280;34335;51.566;6.994;2023-07-13T09:54:52;101039.38;;;22.35;97.11
48553;BME280;34335;51.566;6.994;2023-07-13T09:57:23;101034.59;;;22.03;100.00
48553;BME280;34335;51.566;6.994;2023-07-13T09:59:50;101035.47;;;21.83;100.00
48553;BME280;34335;51.566;6.994;2023-07-13T10:02:32;101037.25;;;22.03;100.00
48553;BME280;34335;51.566;6.994;2023-07-13T10:05:10;101043.06;;;21.91;100.00
48553;BME280;34335;51.566;6.994;2023-07-13T10:07:42;101037.00;;;21.68;100.00
48553;BME280;34335;51.566;6.994;2023-07-13T10:10:18;101048.66;;;21.40;100.00
48553;BME280;34335;51.566;6.994;2023-07-13T10:12:46;101049.28;;;21.69;100.00
48553;BME280;34335;51.566;6.994;2023-07-13T10:15:18;101051.59;;;21.77;100.00
48553;BME280;34335;51.566;6.994;2023-07-13T10:17:44;101056.59;;;21.40;100.00
48553;BME280;34335;51.566;6.994;2023-07-13T10:20:10;101049.88;;;21.97;99.60
48553;BME280;34335;51.566;6.994;2023-07-13T10:22:59;101058.84;;;21.94;100.00
48553;BME280;34335;51.566;6.994;2023-07-13T10:25:29;101048.75;;;22.23;99.34
48553;BME280;34335;51.566;6.994;2023-07-13T10:28:04;101056.38;;;22.70;97.80
48553;BME280;34335;51.566;6.994;2023-07-13T10:30:35;101053.06;;;22.05;96.82
48553;BME280;34335;51.566;6.994;2023-07-13T10:33:10;101042.31;;;22.29;97.14
48553;BME280;34335;51.566;6.994;2023-07-13T10:35:37;101050.00;;;22.75;93.96
48553;BME280;34335;51.566;6.994;2023-07-13T10:38:11;101054.22;;;22.79;93.25
48553;BME280;34335;51.566;6.994;2023-07-13T10:41:05;101050.59;;;21.79;94.35
48553;BME280;34335;51.566;6.994;2023-07-13T10:43:35;101044.91;;;22.09;95.82
48553;BME280;34335;51.566;6.994;2023-07-13T10:46:06;101056.00;;;22.40;93.09
48553;BME280;34335;51.566;6.994;2023-07-13T10:48:34;101054.88;;;22.04;93.10
48553;BME280;34335;51.566;6.994;2023-07-13T10:51:03;101048.41;;;22.70;95.45
48553;BME280;34335;51.566;6.994;2023-07-13T10:53:33;101054.25;;;22.96;92.73
48553;BME280;34335;51.566;6.994;2023-07-13T10:56:01;101045.25;;;23.00;91.93
48553;BME280;34335;51.566;6.994;2023-07-13T10:58:38;101041.47;;;23.60;88.02
48553;BME280;34335;51.566;6.994;2023-07-13T11:01:15;101051.69;;;23.50;90.04
48553;BME280;34335;51.566;6.994;2023-07-13T11:03:49;101051.31;;;23.76;86.71
48553;BME280;34335;51.566;6.994;2023-07-13T11:06:39;101049.72;;;23.72;85.01
48553;BME280;34335;51.566;6.994;2023-07-13T11:09:24;101048.56;;;23.77;83.25
48553;BME280;34335;51.566;6.994;2023-07-13T11:11:56;101050.41;;;23.40;85.54
48553;BME280;34335;51.566;6.994;2023-07-13T11:14:44;101042.78;;;23.15;84.92
48553;BME280;34335;51.566;6.994;2023-07-13T11:19:53;101044.06;;;23.25;84.95
48553;BME280;34335;51.566;6.994;2023-07-13T11:22:24;101037.53;;;23.32;84.16
48553;BME280;34335;51.566;6.994;2023-07-13T11:24:58;101035.94;;;23.65;84.67
48553;BME280;34335;51.566;6.994;2023-07-13T11:27:45;101047.66;;;23.24;84.64
48553;BME280;34335;51.566;6.994;2023-07-13T11:30:21;101046.16;;;23.18;83.34
48553;BME280;34335;51.566;6.994;2023-07-13T11:33:13;101044.56;;;23.14;81.35
48553;BME280;34335;51.566;6.994;2023-07-13T11:35:44;101038.19;;;23.18;83.63
48553;BME280;34335;51.566;6.994;2023-07-13T11:38:15;101037.19;;;23.75;80.97
48553;BME280;34335;51.566;6.994;2023-07-13T11:40:44;101031.00;;;23.75;82.92
48553;BME280;34335;51.566;6.994;2023-07-13T11:43:13;101040.13;;;23.87;80.18
48553;BME280;34335;51.566;6.994;2023-07-13T11:45:39;101040.72;;;24.27;80.15
48553;BME280;34335;51.566;6.994;2023-07-13T11:48:04;101038.41;;;23.86;75.98
48553;BME280;34335;51.566;6.994;2023-07-13T11:50:29;101033.97;;;24.04;75.30
48553;BME280;34335;51.566;6.994;2023-07-13T11:52:57;101031.13;;;24.24;72.73
48553;BME280;34335;51.566;6.994;2023-07-13T11:55:23;101037.50;;;24.04;71.96
48553;BME280;34335;51.566;6.994;2023-07-13T11:58:00;101021.09;;;24.30;71.74
48553;BME280;34335;51.566;6.994;2023-07-13T12:00:29;101023.94;;;24.76;70.88
48553;BME280;34335;51.566;6.994;2023-07-13T12:02:59;101023.41;;;24.69;73.25
48553;BME280;34335;51.566;6.994;2023-07-13T12:05:26;101032.34;;;23.66;71.30
48553;BME280;34335;51.566;6.994;2023-07-13T12:07:52;101034.47;;;24.28;73.76
48553;BME280;34335;51.566;6.994;2023-07-13T12:10:26;101023.47;;;24.68;70.99
48553;BME280;34335;51.566;6.994;2023-07-13T12:12:57;101032.88;;;23.73;73.09
48553;BME280;34335;51.566;6.994;2023-07-13T12:15:26;101033.38;;;23.99;70.90
48553;BME280;34335;51.566;6.994;2023-07-13T12:17:53;101018.25;;;25.14;70.68
48553;BME280;34335;51.566;6.994;2023-07-13T12:20:24;101030.69;;;24.82;67.32
48553;BME280;34335;51.566;6.994;2023-07-13T12:22:51;101021.50;;;25.19;66.87
48553;BME280;34335;51.566;6.994;2023-07-13T12:25:17;101021.59;;;25.18;67.35
48553;BME280;34335;51.566;6.994;2023-07-13T12:27:49;101013.25;;;25.40;67.90
48553;BME280;34335;51.566;6.994;2023-07-13T12:30:32;101011.03;;;25.63;70.52
48553;BME280;34335;51.566;6.994;2023-07-13T12:33:17;101035.69;;;25.04;65.79
48553;BME280;34335;51.566;6.994;2023-07-13T12:35:52;101024.88;;;24.25;63.82
48553;BME280;34335;51.566;6.994;2023-07-13T12:38:17;101029.06;;;24.30;67.50
48553;BME280;34335;51.566;6.994;2023-07-13T12:40:43;101027.44;;;24.27;70.48
48553;BME280;34335;51.566;6.994;2023-07-13T12:43:13;101022.50;;;24.53;66.24
48553;BME280;34335;51.566;6.994;2023-07-13T12:48:21;101028.63;;;24.21;67.43
48553;BME280;34335;51.566;6.994;2023-07-13T12:50:48;101028.28;;;24.77;70.76
48553;BME280;34335;51.566;6.994;2023-07-13T12:53:19;101023.41;;;24.69;69.17
48553;BME280;34335;51.566;6.994;2023-07-13T12:55:50;101041.94;;;24.04;66.75
48553;BME280;34335;51.566;6.994;2023-07-13T12:58:40;101039.75;;;24.12;69.61
48553;BME280;34335;51.566;6.994;2023-07-13T13:01:10;101055.84;;;23.56;69.89
48553;BME280;34335;51.566;6.994;2023-07-13T13:03:45;101103.44;;;24.14;71.85
48553;BME280;34335;51.566;6.994;2023-07-13T13:08:50;101127.13;;;21.41;94.16